createdAt,value
2022-12-13T00:01:16.509Z,56.72
2022-12-13T00:03:21.740Z,52.55
2022-12-13T00:05:26.813Z,52.25
2022-12-13T00:07:31.170Z,51.25
2022-12-13T00:09:35.486Z,51.40
2022-12-13T00:11:39.699Z,50.63
2022-12-13T00:13:46.824Z,54.50
2022-12-13T00:15:57.745Z,50.67
2022-12-13T00:18:01.473Z,52.55
2022-12-13T00:20:06.024Z,54.03
2022-12-13T00:22:09.874Z,50.22
2022-12-13T00:24:14.804Z,53.45
2022-12-13T00:26:21.159Z,55.35
2022-12-13T00:28:25.475Z,56.17
2022-12-13T00:30:32.715Z,52.70
2022-12-13T00:32:37.238Z,53.40
2022-12-13T00:34:40.919Z,53.88
2022-12-13T00:36:44.738Z,53.00
2022-12-13T00:39:00.491Z,51.97
2022-12-13T00:41:13.099Z,51.55
2022-12-13T00:43:18.501Z,48.97
2022-12-13T00:45:22.223Z,51.13
2022-12-13T00:47:28.545Z,49.08
2022-12-13T00:49:32.143Z,47.60
2022-12-13T00:51:37.108Z,46.25
2022-12-13T00:53:41.327Z,42.97
2022-12-13T00:55:45.273Z,43.72
2022-12-13T00:57:49.009Z,44.15
2022-12-13T00:59:52.836Z,44.72
2022-12-13T01:01:56.650Z,46.08
2022-12-13T01:04:03.165Z,44.20
2022-12-13T01:06:15.950Z,44.00
2022-12-13T01:08:20.401Z,44.40
2022-12-13T01:10:25.099Z,42.65
2022-12-13T01:12:28.890Z,44.97
2022-12-13T01:14:35.663Z,41.42
2022-12-13T01:16:39.796Z,41.05
2022-12-13T01:18:44.121Z,44.13
2022-12-13T01:21:00.983Z,43.80
2022-12-13T01:23:05.059Z,44.42
2022-12-13T01:25:10.203Z,44.90
2022-12-13T01:27:14.029Z,43.42
2022-12-13T01:29:17.851Z,46.80
2022-12-13T01:31:22.616Z,48.33
2022-12-13T01:33:27.651Z,49.42
2022-12-13T01:35:31.462Z,45.33
2022-12-13T01:37:37.553Z,45.05
2022-12-13T01:39:41.280Z,46.60
2022-12-13T01:41:46.134Z,46.58
2022-12-13T01:43:56.434Z,47.72
2022-12-13T01:46:00.157Z,46.92
2022-12-13T01:48:07.772Z,45.78
2022-12-13T01:50:16.186Z,46.58
2022-12-13T01:52:20.063Z,43.33
2022-12-13T01:54:33.834Z,45.15
2022-12-13T01:56:42.114Z,43.95
2022-12-13T01:58:46.833Z,45.22
2022-12-13T02:00:51.653Z,42.88
2022-12-13T02:02:58.840Z,41.75
2022-12-13T02:05:08.110Z,42.00
2022-12-13T02:07:13.135Z,42.28
2022-12-13T02:09:18.014Z,40.85
2022-12-13T02:11:23.959Z,38.88
2022-12-13T02:13:27.821Z,36.63
2022-12-13T02:15:39.399Z,37.65
2022-12-13T02:18:02.036Z,36.40
2022-12-13T02:20:38.798Z,38.58
2022-12-13T02:22:57.319Z,40.58
2022-12-13T02:25:17.450Z,40.67
2022-12-13T02:27:44.768Z,41.53
2022-12-13T02:30:24.616Z,42.38
2022-12-13T02:32:34.682Z,43.80
2022-12-13T02:34:41.177Z,44.08
2022-12-13T02:36:57.568Z,46.60
2022-12-13T02:39:10.843Z,46.40
2022-12-13T02:41:18.721Z,42.50
2022-12-13T02:43:25.551Z,38.45
2022-12-13T02:45:42.793Z,37.80
2022-12-13T02:47:49.363Z,34.90
2022-12-13T02:49:56.713Z,33.90
2022-12-13T02:52:01.806Z,32.83
2022-12-13T02:54:05.633Z,33.50
2022-12-13T02:56:09.377Z,29.77
2022-12-13T02:58:15.311Z,28.70
2022-12-13T03:00:21.484Z,30.55
2022-12-13T03:02:33.436Z,27.60
2022-12-13T03:05:07.999Z,29.20
2022-12-13T03:07:24.477Z,28.95
2022-12-13T03:09:45.515Z,30.48
2022-12-13T03:12:24.262Z,32.13
2022-12-13T03:14:31.560Z,30.50
2022-12-13T03:16:39.613Z,29.73
2022-12-13T03:18:47.461Z,30.75
2022-12-13T03:20:59.235Z,29.73
2022-12-13T03:23:02.957Z,30.80
2022-12-13T03:25:07.169Z,29.15
2022-12-13T03:27:11.267Z,29.63
2022-12-13T03:29:23.847Z,28.83
2022-12-13T03:31:28.605Z,27.58
2022-12-13T03:33:32.187Z,28.27
2022-12-13T03:35:44.317Z,27.55
2022-12-13T03:37:50.247Z,26.88
2022-12-13T03:39:53.758Z,27.98
2022-12-13T03:41:57.476Z,27.40
2022-12-13T03:44:01.575Z,25.58
2022-12-13T03:46:05.148Z,26.75
2022-12-13T03:48:08.729Z,26.88
2022-12-13T03:50:26.708Z,25.85
2022-12-13T03:52:31.204Z,25.30
2022-12-13T03:54:36.316Z,25.17
2022-12-13T03:56:39.968Z,24.75
2022-12-13T03:58:43.689Z,26.38
2022-12-13T04:00:47.460Z,26.35
2022-12-13T04:02:51.136Z,25.05
2022-12-13T04:04:54.910Z,24.55
2022-12-13T04:07:04.546Z,23.73
2022-12-13T04:09:25.970Z,24.30
2022-12-13T04:11:53.288Z,22.38
2022-12-13T04:13:58.750Z,24.60
2022-12-13T04:16:03.513Z,24.40
2022-12-13T04:18:07.445Z,24.65
2022-12-13T04:20:12.021Z,23.30
2022-12-13T04:22:19.054Z,24.08
2022-12-13T04:24:31.818Z,23.90
2022-12-13T04:26:37.192Z,21.90
2022-12-13T04:28:40.693Z,20.60
2022-12-13T04:30:44.284Z,22.63
2022-12-13T04:32:47.841Z,22.00
2022-12-13T04:34:51.498Z,21.02
2022-12-13T04:36:55.060Z,21.23
2022-12-13T04:38:58.594Z,21.42
2022-12-13T04:41:09.030Z,20.52
2022-12-13T04:43:14.090Z,19.77
2022-12-13T04:45:19.480Z,21.10
2022-12-13T04:47:23.128Z,21.08
2022-12-13T04:49:27.033Z,19.83
2022-12-13T04:51:31.385Z,20.30
2022-12-13T04:53:35.054Z,20.20
2022-12-13T04:55:38.877Z,19.80
2022-12-13T04:57:42.310Z,20.20
2022-12-13T04:59:47.314Z,19.15
2022-12-13T05:01:51.072Z,18.90
2022-12-13T05:03:54.717Z,20.42
2022-12-13T05:05:58.225Z,20.17
2022-12-13T05:08:01.777Z,20.00
2022-12-13T05:10:06.500Z,20.13
2022-12-13T05:12:13.027Z,22.20
2022-12-13T05:14:27.959Z,22.80
2022-12-13T05:16:34.938Z,21.38
2022-12-13T05:18:39.493Z,20.10
2022-12-13T05:20:44.322Z,19.33
2022-12-13T05:22:48.011Z,19.88
2022-12-13T05:24:52.933Z,20.10
2022-12-13T05:26:56.484Z,18.33
2022-12-13T05:29:00.557Z,18.98
2022-12-13T05:31:22.704Z,19.05
2022-12-13T05:33:28.737Z,19.05
2022-12-13T05:35:32.231Z,19.70
2022-12-13T05:37:35.830Z,19.83
2022-12-13T05:39:39.363Z,19.40
2022-12-13T05:41:44.340Z,21.83
2022-12-13T05:43:48.725Z,21.13
2022-12-13T05:45:52.295Z,20.25
2022-12-13T05:47:55.927Z,20.73
2022-12-13T05:50:01.213Z,20.65
2022-12-13T05:52:04.854Z,21.65
2022-12-13T05:54:08.865Z,21.42
2022-12-13T05:56:13.463Z,20.75
2022-12-13T05:58:26.198Z,21.95
2022-12-13T06:00:39.045Z,21.90
2022-12-13T06:02:43.682Z,20.95
2022-12-13T06:04:47.337Z,22.20
2022-12-13T06:06:52.649Z,21.55
2022-12-13T06:08:56.356Z,21.45
2022-12-13T06:11:11.759Z,21.83
2022-12-13T06:13:21.507Z,21.48
2022-12-13T06:15:26.550Z,21.02
2022-12-13T06:17:38.872Z,21.98
2022-12-13T06:19:42.433Z,22.77
2022-12-13T06:21:46.746Z,21.25
2022-12-13T06:23:51.993Z,20.75
2022-12-13T06:25:55.807Z,22.40
2022-12-13T06:28:00.886Z,23.38
2022-12-13T06:30:05.754Z,23.08
2022-12-13T06:32:09.422Z,23.42
2022-12-13T06:34:14.836Z,24.73
2022-12-13T06:36:19.073Z,22.23
2022-12-13T06:38:31.323Z,22.92
2022-12-13T06:40:37.208Z,21.27
2022-12-13T06:42:41.581Z,23.55
2022-12-13T06:44:45.127Z,26.00
2022-12-13T06:46:49.250Z,26.52
2022-12-13T06:48:55.882Z,26.00
2022-12-13T06:51:02.868Z,26.52
2022-12-13T06:53:07.024Z,27.02
2022-12-13T06:55:11.489Z,26.58
2022-12-13T06:57:17.431Z,29.30
2022-12-13T06:59:21.269Z,28.83
2022-12-13T07:01:25.299Z,29.10
2022-12-13T07:03:29.550Z,28.15
2022-12-13T07:05:33.613Z,29.50
2022-12-13T07:07:37.500Z,29.15
2022-12-13T07:09:41.513Z,30.35
2022-12-13T07:11:51.441Z,30.77
2022-12-13T07:13:58.631Z,31.17
2022-12-13T07:16:02.528Z,30.27
2022-12-13T07:18:06.200Z,30.33
2022-12-13T07:20:11.434Z,33.05
2022-12-13T07:22:15.435Z,32.30
2022-12-13T07:24:18.966Z,32.40
2022-12-13T07:26:22.714Z,33.72
2022-12-13T07:28:26.639Z,33.58
2022-12-13T07:30:33.003Z,31.92
2022-12-13T07:32:36.627Z,35.38
2022-12-13T07:34:40.328Z,34.67
2022-12-13T07:36:43.818Z,35.25
2022-12-13T07:38:53.269Z,36.05
2022-12-13T07:40:58.893Z,35.10
2022-12-13T07:43:02.656Z,37.83
2022-12-13T07:45:06.932Z,37.97
2022-12-13T07:47:15.806Z,38.17
2022-12-13T07:49:19.607Z,38.03
2022-12-13T07:51:24.625Z,37.15
2022-12-13T07:53:28.752Z,37.20
2022-12-13T07:55:38.579Z,35.42
2022-12-13T07:57:42.636Z,35.95
2022-12-13T07:59:46.626Z,37.83
2022-12-13T08:01:50.543Z,34.92
2022-12-13T08:03:56.486Z,35.00
2022-12-13T08:06:01.876Z,35.42
2022-12-13T08:08:07.520Z,35.17
2022-12-13T08:10:11.808Z,35.05
2022-12-13T08:12:15.826Z,35.10
2022-12-13T08:14:26.597Z,33.60
2022-12-13T08:16:30.671Z,34.83
2022-12-13T08:18:34.546Z,32.15
2022-12-13T08:20:40.227Z,34.75
2022-12-13T08:22:43.919Z,35.80
2022-12-13T08:24:53.445Z,32.80
2022-12-13T08:27:01.253Z,32.63
2022-12-13T08:29:05.644Z,31.63
2022-12-13T08:31:11.723Z,21.20
2022-12-13T08:33:15.449Z,18.25
2022-12-13T08:35:19.202Z,19.88
2022-12-13T08:37:25.028Z,18.00
2022-12-13T08:39:29.134Z,18.63
2022-12-13T08:41:38.932Z,14.88
2022-12-13T08:43:43.833Z,14.32
2022-12-13T08:45:48.334Z,10.75
2022-12-13T08:47:53.014Z,12.35
2022-12-13T08:50:02.595Z,12.52
2022-12-13T08:52:07.984Z,12.23
2022-12-13T08:54:13.168Z,11.15
2022-12-13T08:56:36.413Z,11.68
2022-12-13T08:58:41.913Z,11.32
2022-12-13T09:00:46.789Z,11.65
2022-12-13T09:02:51.263Z,11.00
2022-12-13T09:04:55.645Z,9.60
2022-12-13T09:07:01.573Z,9.93
2022-12-13T09:09:06.501Z,10.98
2022-12-13T09:11:24.005Z,10.00
2022-12-13T09:13:43.327Z,8.93
2022-12-13T09:15:47.827Z,9.65
2022-12-13T09:17:54.487Z,9.23
2022-12-13T09:19:59.519Z,9.40
2022-12-13T09:22:04.002Z,9.05
2022-12-13T09:24:23.611Z,9.95
2022-12-13T09:26:37.642Z,9.95
2022-12-13T09:30:48.531Z,10.38
2022-12-13T09:32:52.702Z,9.88
2022-12-13T09:34:56.990Z,9.52
2022-12-13T09:37:02.017Z,10.90
2022-12-13T09:39:06.283Z,9.07
2022-12-13T09:41:19.629Z,8.85
2022-12-13T09:43:31.770Z,9.55
2022-12-13T09:45:42.866Z,9.27
2022-12-13T09:47:49.117Z,8.73
2022-12-13T09:49:53.994Z,9.50
2022-12-13T09:52:11.197Z,10.05
2022-12-13T09:54:20.958Z,10.13
2022-12-13T09:56:25.585Z,8.63
2022-12-13T09:58:33.431Z,9.13
2022-12-13T10:00:38.388Z,8.35
2022-12-13T10:02:46.650Z,5.78
2022-12-13T10:04:50.731Z,8.35
2022-12-13T10:06:56.603Z,8.85
2022-12-13T10:09:02.077Z,7.60
2022-12-13T10:11:06.747Z,8.52
2022-12-13T10:13:19.603Z,8.80
2022-12-13T10:15:26.451Z,8.63
2022-12-13T10:17:38.052Z,8.57
2022-12-13T10:19:44.839Z,8.45
2022-12-13T10:21:49.828Z,7.50
2022-12-13T10:24:23.112Z,6.65
2022-12-13T10:26:24.227Z,6.63
2022-12-13T10:28:31.380Z,6.85
2022-12-13T10:30:46.560Z,5.63
2022-12-13T10:32:55.266Z,5.20
2022-12-13T10:34:59.087Z,6.93
2022-12-13T10:37:28.368Z,6.07
2022-12-13T10:39:41.239Z,8.02
2022-12-13T10:41:46.745Z,6.72
2022-12-13T10:44:18.028Z,5.97
2022-12-13T10:46:25.068Z,6.22
2022-12-13T10:48:38.972Z,6.28
2022-12-13T10:50:43.870Z,6.60
2022-12-13T10:52:49.467Z,6.15
2022-12-13T10:54:54.044Z,5.32
2022-12-13T10:57:06.561Z,6.78
2022-12-13T10:59:17.222Z,6.18
2022-12-13T11:01:25.461Z,8.00
2022-12-13T11:03:33.816Z,8.60
2022-12-13T11:05:40.846Z,8.13
2022-12-13T11:07:45.079Z,7.35
2022-12-13T11:09:52.443Z,4.85
2022-12-13T11:11:59.621Z,6.32
2022-12-13T11:14:03.950Z,5.38
2022-12-13T11:16:23.572Z,5.45
2022-12-13T11:18:37.726Z,5.35
2022-12-13T11:20:56.478Z,3.92
2022-12-13T11:23:08.206Z,4.75
2022-12-13T11:25:23.466Z,4.88
2022-12-13T11:27:47.349Z,4.38
2022-12-13T11:32:11.413Z,3.60
2022-12-13T11:34:24.734Z,3.22
2022-12-13T11:38:58.962Z,4.38
2022-12-13T11:41:11.399Z,3.63
2022-12-13T11:43:23.369Z,3.80
2022-12-13T11:45:32.963Z,3.97
2022-12-13T11:47:41.514Z,3.95
2022-12-13T11:49:51.103Z,3.00
2022-12-13T11:52:00.243Z,3.95
2022-12-13T11:54:12.752Z,3.88
2022-12-13T11:56:26.360Z,4.13
2022-12-13T11:59:01.914Z,3.10
2022-12-13T12:01:06.191Z,3.70
2022-12-13T12:03:20.017Z,5.30
2022-12-13T12:05:35.547Z,4.93
2022-12-13T12:08:12.685Z,3.75
2022-12-13T12:10:24.360Z,3.53
2022-12-13T12:12:33.711Z,4.15
2022-12-13T12:14:44.091Z,4.15
2022-12-13T12:16:53.297Z,4.00
2022-12-13T12:19:01.565Z,3.60
2022-12-13T12:21:19.268Z,4.15
2022-12-13T12:23:36.325Z,4.28
2022-12-13T12:25:49.621Z,3.22
2022-12-13T12:28:04.154Z,3.83
2022-12-13T12:30:23.858Z,3.92
2022-12-13T12:32:36.750Z,3.58
2022-12-13T12:34:52.309Z,4.85
2022-12-13T12:37:11.805Z,3.83
2022-12-13T12:39:35.638Z,4.28
2022-12-13T12:42:03.388Z,3.65
2022-12-13T12:44:18.996Z,4.90
2022-12-13T12:47:08.725Z,4.30
2022-12-13T12:49:33.514Z,4.55
2022-12-13T12:51:50.575Z,4.05
2022-12-13T12:54:10.670Z,4.07
2022-12-13T12:56:35.651Z,3.55
2022-12-13T12:58:48.527Z,4.32
2022-12-13T13:01:06.521Z,4.30
2022-12-13T13:03:22.905Z,4.43
2022-12-13T13:05:32.086Z,5.43
2022-12-13T13:07:40.385Z,5.93
2022-12-13T13:09:45.963Z,5.65
2022-12-13T13:11:51.088Z,5.10
2022-12-13T13:14:08.409Z,5.25
2022-12-13T13:16:31.207Z,5.40
2022-12-13T13:18:51.619Z,5.90
2022-12-13T13:21:43.007Z,5.30
2022-12-13T13:23:47.093Z,4.97
2022-12-13T13:26:24.283Z,5.18
2022-12-13T13:28:23.900Z,3.55
2022-12-13T13:30:28.304Z,4.65
2022-12-13T13:32:33.047Z,3.83
2022-12-13T13:34:41.541Z,3.50
2022-12-13T13:36:52.728Z,3.65
2022-12-13T13:39:01.119Z,4.25
2022-12-13T13:41:43.467Z,4.20
2022-12-13T13:43:48.189Z,4.50
2022-12-13T13:45:58.967Z,3.90
2022-12-13T13:48:20.016Z,3.70
2022-12-13T13:50:57.270Z,4.63
2022-12-13T13:53:28.607Z,3.90
2022-12-13T13:55:50.925Z,4.47
2022-12-13T13:58:21.313Z,4.65
2022-12-13T14:00:40.760Z,3.60
2022-12-13T14:03:29.162Z,3.25
2022-12-13T14:06:11.707Z,3.92
2022-12-13T14:08:41.096Z,3.08
2022-12-13T14:10:54.559Z,3.25
2022-12-13T14:13:41.447Z,3.38
2022-12-13T14:16:30.819Z,3.40
2022-12-13T14:19:09.204Z,3.05
2022-12-13T14:21:28.717Z,3.72
2022-12-13T14:23:44.693Z,3.83
2022-12-13T14:26:17.361Z,4.47
2022-12-13T14:28:43.740Z,4.47
2022-12-13T14:30:57.113Z,4.40
2022-12-13T14:33:02.377Z,4.75
2022-12-13T14:35:25.429Z,4.10
2022-12-13T14:37:33.028Z,4.55
2022-12-13T14:39:36.855Z,4.28
2022-12-13T14:41:48.102Z,5.15
2022-12-13T14:43:52.026Z,4.47
2022-12-13T14:45:58.171Z,3.70
2022-12-13T14:48:05.258Z,4.60
2022-12-13T14:50:16.694Z,4.50
2022-12-13T14:52:26.502Z,5.10
2022-12-13T14:54:37.712Z,5.35
2022-12-13T14:56:57.111Z,4.45
2022-12-13T14:59:02.652Z,4.22
2022-12-13T15:01:07.729Z,5.00
2022-12-13T15:03:24.049Z,5.10
2022-12-13T15:05:35.529Z,5.05
2022-12-13T15:07:42.967Z,4.60
2022-12-13T15:09:48.089Z,4.95
2022-12-13T15:11:53.249Z,6.28
2022-12-13T15:13:58.199Z,6.25
2022-12-13T15:16:10.595Z,7.25
2022-12-13T15:18:20.124Z,6.90
2022-12-13T15:20:42.291Z,6.93
2022-12-13T15:23:01.452Z,6.45
2022-12-13T15:25:08.618Z,7.47
2022-12-13T15:27:17.300Z,6.70
2022-12-13T15:29:24.157Z,7.82
2022-12-13T15:31:28.983Z,7.13
2022-12-13T15:33:38.040Z,5.85
2022-12-13T15:35:48.012Z,6.70
2022-12-13T15:37:52.295Z,7.35
2022-12-13T15:40:01.145Z,6.55
2022-12-13T15:42:05.270Z,6.78
2022-12-13T15:44:20.904Z,7.38
2022-12-13T15:46:29.796Z,7.53
2022-12-13T15:48:36.936Z,6.97
2022-12-13T15:50:47.314Z,7.60
2022-12-13T15:53:01.688Z,8.10
2022-12-13T15:55:28.670Z,7.47
2022-12-13T15:57:34.965Z,6.40
2022-12-13T15:59:39.054Z,6.55
2022-12-13T16:01:43.080Z,6.88
2022-12-13T16:03:50.922Z,7.40
2022-12-13T16:05:56.660Z,8.35
2022-12-13T16:08:13.484Z,7.47
2022-12-13T16:10:20.235Z,7.25
2022-12-13T16:12:30.873Z,7.00
2022-12-13T16:14:48.785Z,5.68
2022-12-13T16:16:53.864Z,5.30
2022-12-13T16:18:59.698Z,5.57
2022-12-13T16:21:03.474Z,5.25
2022-12-13T16:23:09.440Z,5.07
2022-12-13T16:25:15.890Z,4.90
2022-12-13T16:27:19.615Z,4.25
2022-12-13T16:29:23.742Z,4.95
2022-12-13T16:31:31.770Z,5.57
2022-12-13T16:33:36.222Z,5.35
2022-12-13T16:35:40.355Z,4.22
2022-12-13T16:37:48.048Z,5.07
2022-12-13T16:39:53.369Z,6.43
2022-12-13T16:41:57.351Z,6.25
2022-12-13T16:44:04.244Z,5.90
2022-12-13T16:47:11.911Z,5.20
2022-12-13T16:48:33.087Z,5.03
2022-12-13T16:50:37.523Z,6.03
2022-12-13T16:52:41.274Z,6.88
2022-12-13T16:54:44.809Z,7.05
2022-12-13T16:56:50.910Z,6.40
2022-12-13T16:58:54.567Z,6.55
2022-12-13T17:01:00.393Z,6.90
2022-12-13T17:03:05.101Z,7.00
2022-12-13T17:05:10.220Z,6.95
2022-12-13T17:07:13.918Z,6.25
2022-12-13T17:09:18.145Z,6.18
2022-12-13T17:11:22.453Z,5.78
2022-12-13T17:13:28.706Z,6.63
2022-12-13T17:15:33.438Z,6.38
2022-12-13T17:17:38.999Z,6.82
2022-12-13T17:19:43.235Z,6.18
2022-12-13T17:21:46.996Z,5.80
2022-12-13T17:23:50.812Z,5.97
2022-12-13T17:25:58.077Z,5.43
2022-12-13T17:28:04.572Z,5.07
2022-12-13T17:30:17.076Z,5.53
2022-12-13T17:32:21.058Z,5.88
2022-12-13T17:34:25.473Z,5.13
2022-12-13T17:36:31.599Z,5.93
2022-12-13T17:38:35.760Z,6.40
2022-12-13T17:40:39.323Z,6.53
2022-12-13T17:42:43.668Z,7.80
2022-12-13T17:44:47.605Z,8.82
2022-12-13T17:46:54.644Z,10.23
2022-12-13T17:48:59.516Z,8.73
2022-12-13T17:51:03.514Z,6.80
2022-12-13T17:53:07.488Z,8.90
2022-12-13T17:55:17.951Z,6.40
2022-12-13T17:57:22.294Z,6.82
2022-12-13T17:59:27.444Z,6.43
2022-12-13T18:01:31.649Z,6.43
2022-12-13T18:03:37.510Z,6.35
2022-12-13T18:05:41.252Z,6.13
2022-12-13T18:07:50.688Z,6.25
2022-12-13T18:09:54.729Z,8.45
2022-12-13T18:11:58.161Z,6.40
2022-12-13T18:14:02.230Z,8.60
2022-12-13T18:16:07.027Z,8.32
2022-12-13T18:18:12.101Z,7.65
2022-12-13T18:20:17.870Z,8.82
2022-12-13T18:22:22.078Z,6.22
2022-12-13T18:24:25.844Z,6.90
2022-12-13T18:26:29.547Z,8.90
2022-12-13T18:28:34.089Z,7.72
2022-12-13T18:30:38.546Z,7.85
2022-12-13T18:32:43.096Z,6.50
2022-12-13T18:34:46.814Z,8.27
2022-12-13T18:36:52.026Z,7.25
2022-12-13T18:38:55.851Z,6.80
2022-12-13T18:40:59.686Z,7.25
2022-12-13T18:43:04.508Z,6.38
2022-12-13T18:45:08.956Z,5.95
2022-12-13T18:47:17.912Z,5.13
2022-12-13T18:49:24.782Z,5.93
2022-12-13T18:51:29.165Z,11.23
2022-12-13T18:53:35.999Z,7.47
2022-12-13T18:55:39.919Z,6.88
2022-12-13T18:57:43.953Z,6.65
2022-12-13T18:59:54.277Z,8.70
2022-12-13T19:01:59.192Z,7.65
2022-12-13T19:04:03.207Z,8.88
2022-12-13T19:06:08.619Z,9.60
2022-12-13T19:08:12.196Z,7.60
2022-12-13T19:10:17.928Z,9.00
2022-12-13T19:12:21.632Z,7.93
2022-12-13T19:14:27.228Z,7.57
2022-12-13T19:16:31.083Z,6.80
2022-12-13T19:18:35.187Z,6.93
2022-12-13T19:20:38.997Z,9.30
2022-12-13T19:22:42.789Z,9.77
2022-12-13T19:24:47.060Z,21.48
2022-12-13T19:26:52.959Z,32.03
2022-12-13T19:28:58.579Z,35.92
2022-12-13T19:31:05.603Z,35.17
2022-12-13T19:33:09.460Z,34.75
2022-12-13T19:35:13.166Z,32.15
2022-12-13T19:37:16.876Z,32.33
2022-12-13T19:39:20.853Z,31.02
2022-12-13T19:41:24.543Z,34.65
2022-12-13T19:43:30.401Z,32.70
2022-12-13T19:45:34.246Z,33.13
2022-12-13T19:47:38.153Z,30.45
2022-12-13T19:49:42.312Z,33.97
2022-12-13T19:51:46.255Z,34.47
2022-12-13T19:53:51.040Z,34.38
2022-12-13T19:55:55.091Z,38.92
2022-12-13T19:58:00.860Z,39.38
2022-12-13T20:00:07.580Z,37.65
2022-12-13T20:02:14.027Z,34.25
2022-12-13T20:04:17.916Z,35.90
2022-12-13T20:06:24.366Z,33.35
2022-12-13T20:08:28.138Z,35.15
2022-12-13T20:10:32.420Z,36.22
2022-12-13T20:12:40.710Z,36.70
2022-12-13T20:14:45.431Z,38.80
2022-12-13T20:16:50.845Z,38.17
2022-12-13T20:18:59.104Z,36.50
2022-12-13T20:21:13.727Z,34.13
2022-12-13T20:23:19.096Z,36.65
2022-12-13T20:25:22.745Z,39.20
2022-12-13T20:27:26.608Z,36.75
2022-12-13T20:29:30.608Z,35.42
2022-12-13T20:31:36.756Z,38.88
2022-12-13T20:33:42.651Z,37.10
2022-12-13T20:36:22.027Z,38.88
2022-12-13T20:38:11.912Z,36.67
2022-12-13T20:40:16.324Z,37.92
2022-12-13T20:42:20.026Z,35.17
2022-12-13T20:44:23.930Z,33.72
2022-12-13T20:46:29.195Z,33.03
2022-12-13T20:48:33.392Z,35.90
2022-12-13T20:50:38.747Z,33.15
2022-12-13T20:52:45.160Z,32.00
2022-12-13T20:54:54.149Z,23.63
2022-12-13T20:56:58.004Z,31.55
2022-12-13T20:59:02.400Z,15.07
2022-12-13T21:01:06.605Z,11.80
2022-12-13T21:03:10.508Z,7.47
2022-12-13T21:05:20.488Z,7.07
2022-12-13T21:07:39.797Z,8.10
2022-12-13T21:09:44.975Z,6.22
2022-12-13T21:11:50.578Z,8.13
2022-12-13T21:14:01.219Z,7.72
2022-12-13T21:16:09.731Z,7.93
2022-12-13T21:18:14.638Z,6.78
2022-12-13T21:20:18.550Z,5.85
2022-12-13T21:22:22.819Z,7.55
2022-12-13T21:24:29.727Z,7.40
2022-12-13T21:26:36.157Z,7.57
2022-12-13T21:28:40.826Z,4.75
2022-12-13T21:30:44.829Z,7.00
2022-12-13T21:32:52.805Z,7.90
2022-12-13T21:34:56.784Z,5.20
2022-12-13T21:37:00.889Z,6.03
2022-12-13T21:39:06.905Z,7.45
2022-12-13T21:41:13.557Z,7.38
2022-12-13T21:43:17.795Z,5.72
2022-12-13T21:45:21.529Z,5.70
2022-12-13T21:47:25.318Z,7.05
2022-12-13T21:49:29.154Z,7.25
2022-12-13T21:51:32.952Z,7.80
2022-12-13T21:53:36.903Z,7.05
2022-12-13T21:55:44.231Z,6.50
2022-12-13T21:58:10.703Z,6.55
2022-12-13T22:00:16.528Z,13.57
2022-12-13T22:02:20.854Z,10.05
2022-12-13T22:04:24.917Z,8.30
2022-12-13T22:06:28.701Z,7.18
2022-12-13T22:08:32.561Z,5.28
2022-12-13T22:10:57.231Z,5.85
2022-12-13T22:13:02.916Z,6.63
2022-12-13T22:15:08.059Z,7.18
2022-12-13T22:17:11.913Z,6.43
2022-12-13T22:19:16.293Z,5.72
2022-12-13T22:21:19.752Z,8.00
2022-12-13T22:23:23.762Z,6.57
2022-12-13T22:25:27.736Z,4.90
2022-12-13T22:27:31.511Z,7.93
2022-12-13T22:29:39.658Z,8.32
2022-12-13T22:31:43.904Z,10.45
2022-12-13T22:33:53.031Z,6.15
2022-12-13T22:35:57.269Z,5.88
2022-12-13T22:38:02.162Z,9.63
2022-12-13T22:40:07.124Z,10.55
2022-12-13T22:42:11.859Z,12.15
2022-12-13T22:44:17.094Z,7.85
2022-12-13T22:46:23.243Z,5.63
2022-12-13T22:48:27.655Z,6.03
2022-12-13T22:50:32.680Z,6.32
2022-12-13T22:52:36.951Z,8.35
2022-12-13T22:54:41.029Z,6.60
2022-12-13T22:56:45.435Z,6.63
2022-12-13T22:58:54.264Z,6.57
2022-12-13T23:00:58.394Z,7.05
2022-12-13T23:03:04.201Z,7.88
2022-12-13T23:05:09.051Z,7.45
2022-12-13T23:07:13.501Z,6.18
2022-12-13T23:09:17.969Z,6.25
2022-12-13T23:11:39.407Z,5.78
2022-12-13T23:13:43.410Z,7.72
2022-12-13T23:15:52.497Z,7.53
2022-12-13T23:17:56.631Z,6.82
2022-12-13T23:20:02.249Z,6.53
2022-12-13T23:22:08.684Z,6.65
2022-12-13T23:24:13.550Z,4.68
2022-12-13T23:26:19.541Z,6.78
2022-12-13T23:28:24.652Z,6.10
2022-12-13T23:30:29.265Z,5.85
2022-12-13T23:32:33.350Z,6.18
2022-12-13T23:34:38.165Z,7.07
2022-12-13T23:36:43.975Z,5.82
2022-12-13T23:38:48.329Z,5.75
2022-12-13T23:40:52.382Z,4.97
2022-12-13T23:42:56.717Z,4.50
2022-12-13T23:45:00.973Z,5.78
2022-12-13T23:47:06.542Z,5.32
2022-12-13T23:49:11.954Z,7.47
2022-12-13T23:51:17.974Z,5.32
2022-12-13T23:53:24.536Z,5.65
2022-12-13T23:55:28.788Z,5.95
2022-12-13T23:57:33.577Z,5.22
2022-12-13T23:59:37.892Z,5.05
